createdAt,value
2024-02-15T00:01:49.896Z,21.97
2024-02-15T00:04:23.886Z,21.50
2024-02-15T00:06:58.161Z,19.87
2024-02-15T00:09:31.556Z,19.73
2024-02-15T00:14:41.403Z,23.23
2024-02-15T00:17:15.245Z,21.57
2024-02-15T00:19:49.634Z,24.70
2024-02-15T00:22:23.921Z,23.33
2024-02-15T00:24:57.630Z,21.60
2024-02-15T00:27:31.663Z,25.43
2024-02-15T00:30:09.045Z,25.55
2024-02-15T00:32:43.684Z,23.37
2024-02-15T00:35:19.802Z,23.40
2024-02-15T00:37:54.245Z,25.27
2024-02-15T00:40:28.074Z,23.80
2024-02-15T00:43:02.133Z,25.17
2024-02-15T00:45:36.731Z,24.33
2024-02-15T00:48:12.471Z,25.63
2024-02-15T00:50:47.145Z,32.47
2024-02-15T00:53:21.900Z,34.30
2024-02-15T00:55:56.283Z,35.17
2024-02-15T00:58:30.334Z,37.20
2024-02-15T01:01:04.254Z,28.77
2024-02-15T01:03:40.104Z,26.47
2024-02-15T01:06:14.142Z,23.30
2024-02-15T01:08:48.626Z,21.63
2024-02-15T01:11:23.568Z,24.07
2024-02-15T01:13:57.441Z,21.07
2024-02-15T01:16:32.039Z,22.43
2024-02-15T01:19:06.938Z,22.07
2024-02-15T01:21:41.794Z,24.50
2024-02-15T01:24:16.256Z,23.53
2024-02-15T01:26:51.628Z,21.67
2024-02-15T01:29:26.941Z,22.70
2024-02-15T01:32:01.576Z,23.27
2024-02-15T01:34:37.054Z,21.47
2024-02-15T01:37:10.956Z,21.50
2024-02-15T01:39:44.341Z,20.83
2024-02-15T01:42:18.535Z,24.07
2024-02-15T01:44:54.236Z,23.00
2024-02-15T01:47:29.177Z,21.93
2024-02-15T01:50:04.140Z,22.20
2024-02-15T01:52:40.398Z,23.67
2024-02-15T01:55:15.952Z,25.73
2024-02-15T01:57:51.166Z,24.90
2024-02-15T02:00:25.864Z,22.77
2024-02-15T02:03:04.581Z,23.27
2024-02-15T02:05:39.117Z,27.50
2024-02-15T02:08:13.823Z,23.17
2024-02-15T02:10:48.033Z,21.43
2024-02-15T02:13:22.003Z,23.50
2024-02-15T02:15:57.200Z,21.15
2024-02-15T02:18:31.921Z,22.73
2024-02-15T02:21:07.361Z,22.43
2024-02-15T02:23:43.140Z,23.33
2024-02-15T02:26:18.050Z,24.30
2024-02-15T02:28:54.396Z,22.60
2024-02-15T02:31:28.343Z,21.97
2024-02-15T02:34:02.909Z,23.03
2024-02-15T02:36:37.654Z,24.30
2024-02-15T02:39:12.042Z,21.70
2024-02-15T02:41:46.684Z,24.43
2024-02-15T02:44:20.567Z,22.50
2024-02-15T02:46:54.609Z,22.60
2024-02-15T02:49:28.580Z,27.60
2024-02-15T02:52:03.064Z,25.80
2024-02-15T02:54:36.821Z,23.40
2024-02-15T02:57:13.108Z,25.67
2024-02-15T02:59:48.564Z,24.47
2024-02-15T03:02:23.845Z,23.30
2024-02-15T03:05:01.588Z,23.90
2024-02-15T03:07:37.595Z,23.30
2024-02-15T03:10:15.649Z,23.53
2024-02-15T03:12:50.368Z,26.97
2024-02-15T03:15:24.560Z,22.37
2024-02-15T03:17:58.897Z,25.10
2024-02-15T03:20:33.445Z,23.83
2024-02-15T03:23:08.683Z,24.53
2024-02-15T03:25:42.307Z,23.77
2024-02-15T03:28:16.743Z,24.13
2024-02-15T03:30:51.442Z,24.00
2024-02-15T03:33:28.039Z,27.03
2024-02-15T03:36:02.344Z,23.63
2024-02-15T03:38:36.627Z,26.10
2024-02-15T03:41:11.312Z,25.00
2024-02-15T03:43:45.103Z,27.43
2024-02-15T03:46:19.377Z,23.87
2024-02-15T03:48:54.137Z,23.60
2024-02-15T03:51:30.321Z,22.93
2024-02-15T03:54:05.376Z,24.47
2024-02-15T03:56:39.481Z,24.37
2024-02-15T03:59:15.002Z,24.97
2024-02-15T04:01:48.932Z,25.83
2024-02-15T04:04:23.714Z,24.00
2024-02-15T04:06:57.937Z,24.93
2024-02-15T04:09:31.749Z,24.87
2024-02-15T04:12:06.213Z,25.33
2024-02-15T04:14:40.758Z,23.53
2024-02-15T04:17:18.272Z,24.90
2024-02-15T04:19:55.397Z,25.23
2024-02-15T04:22:29.964Z,28.43
2024-02-15T04:25:04.096Z,24.37
2024-02-15T04:27:39.172Z,28.37
2024-02-15T04:30:17.274Z,29.13
2024-02-15T04:32:53.777Z,26.37
2024-02-15T04:35:29.144Z,27.87
2024-02-15T04:38:05.138Z,25.77
2024-02-15T04:40:40.889Z,25.57
2024-02-15T04:43:17.104Z,25.73
2024-02-15T04:45:52.750Z,25.87
2024-02-15T04:48:27.275Z,26.07
2024-02-15T04:51:02.675Z,26.50
2024-02-15T04:53:37.729Z,28.17
2024-02-15T04:56:15.492Z,29.10
2024-02-15T04:58:49.628Z,31.60
2024-02-15T05:01:23.956Z,32.80
2024-02-15T05:03:58.336Z,30.57
2024-02-15T05:06:33.610Z,28.03
2024-02-15T05:09:09.004Z,34.60
2024-02-15T05:11:47.827Z,30.07
2024-02-15T05:14:24.538Z,29.03
2024-02-15T05:16:59.304Z,27.90
2024-02-15T05:19:34.008Z,25.90
2024-02-15T05:22:08.119Z,27.03
2024-02-15T05:24:41.622Z,27.70
2024-02-15T05:27:16.204Z,27.40
2024-02-15T05:29:54.137Z,24.47
2024-02-15T05:32:28.700Z,27.30
2024-02-15T05:35:03.428Z,27.80
2024-02-15T05:37:38.125Z,27.27
2024-02-15T05:40:17.067Z,26.10
2024-02-15T05:42:51.856Z,26.57
2024-02-15T05:45:38.990Z,27.30
2024-02-15T05:48:14.995Z,25.73
2024-02-15T05:50:48.602Z,25.87
2024-02-15T05:53:23.381Z,29.47
2024-02-15T05:55:59.042Z,33.07
2024-02-15T05:58:33.609Z,30.83
2024-02-15T06:01:13.404Z,30.20
2024-02-15T06:03:49.784Z,36.60
2024-02-15T06:06:27.962Z,30.90
2024-02-15T06:09:04.258Z,28.37
2024-02-15T06:11:39.717Z,30.87
2024-02-15T06:14:13.957Z,33.60
2024-02-15T06:16:48.830Z,28.83
2024-02-15T06:19:23.338Z,29.53
2024-02-15T06:21:57.758Z,32.40
2024-02-15T06:24:33.061Z,33.87
2024-02-15T06:27:08.926Z,30.30
2024-02-15T06:30:00.111Z,40.40
2024-02-15T06:32:52.488Z,37.63
2024-02-15T06:35:44.232Z,31.00
2024-02-15T06:38:36.078Z,28.67
2024-02-15T06:41:11.532Z,30.30
2024-02-15T06:43:45.703Z,29.97
2024-02-15T06:46:20.811Z,28.40
2024-02-15T06:48:56.239Z,31.83
2024-02-15T06:51:30.032Z,29.83
2024-02-15T06:54:04.676Z,30.93
2024-02-15T06:56:43.752Z,34.90
2024-02-15T06:59:20.020Z,28.50
2024-02-15T07:01:55.107Z,27.63
2024-02-15T07:04:30.800Z,28.63
2024-02-15T07:07:05.850Z,31.03
2024-02-15T07:09:40.615Z,32.60
2024-02-15T07:12:16.615Z,29.43
2024-02-15T07:14:51.758Z,32.53
2024-02-15T07:17:26.158Z,28.70
2024-02-15T07:20:00.077Z,31.63
2024-02-15T07:22:35.046Z,31.63
2024-02-15T07:25:11.754Z,32.33
2024-02-15T07:27:47.623Z,30.50
2024-02-15T07:30:26.145Z,30.87
2024-02-15T07:33:01.576Z,30.07
2024-02-15T07:35:37.606Z,26.73
2024-02-15T07:38:12.615Z,27.00
2024-02-15T07:40:46.587Z,31.67
2024-02-15T07:43:20.681Z,29.87
2024-02-15T07:45:54.753Z,25.77
2024-02-15T07:48:29.446Z,27.47
2024-02-15T07:51:03.794Z,29.60
2024-02-15T07:53:39.622Z,31.20
2024-02-15T07:56:14.617Z,27.07
2024-02-15T07:58:54.329Z,27.80
2024-02-15T08:01:32.169Z,27.23
2024-02-15T08:04:06.449Z,30.23
2024-02-15T08:06:41.568Z,25.67
2024-02-15T08:09:19.409Z,23.80
2024-02-15T08:11:54.232Z,24.43
2024-02-15T08:14:29.594Z,26.30
2024-02-15T08:17:04.319Z,23.33
2024-02-15T08:19:40.547Z,20.97
2024-02-15T08:22:15.464Z,23.67
2024-02-15T08:24:49.993Z,21.83
2024-02-15T08:27:24.530Z,23.03
2024-02-15T08:29:58.115Z,21.43
2024-02-15T08:32:32.488Z,22.40
2024-02-15T08:35:07.360Z,21.13
2024-02-15T08:37:43.377Z,21.67
2024-02-15T08:40:20.216Z,23.23
2024-02-15T08:42:54.730Z,20.67
2024-02-15T08:45:29.883Z,22.03
2024-02-15T08:48:06.224Z,20.67
2024-02-15T08:50:40.373Z,21.23
2024-02-15T08:53:16.865Z,22.07
2024-02-15T08:55:50.863Z,23.27
2024-02-15T08:58:25.517Z,21.83
2024-02-15T09:00:59.773Z,21.10
2024-02-15T09:03:33.753Z,21.80
2024-02-15T09:06:09.117Z,19.03
2024-02-15T09:08:43.530Z,22.90
2024-02-15T09:11:18.180Z,19.60
2024-02-15T09:13:52.999Z,19.87
2024-02-15T09:16:28.112Z,20.43
2024-02-15T09:19:03.450Z,23.97
2024-02-15T09:21:38.410Z,18.40
2024-02-15T09:24:13.170Z,21.47
2024-02-15T09:26:47.453Z,19.47
2024-02-15T09:29:22.387Z,19.70
2024-02-15T09:31:56.357Z,19.63
2024-02-15T09:34:30.368Z,22.40
2024-02-15T09:37:06.367Z,19.73
2024-02-15T09:39:41.242Z,19.37
2024-02-15T09:42:15.961Z,20.63
2024-02-15T09:44:52.642Z,18.90
2024-02-15T09:47:28.537Z,19.13
2024-02-15T09:50:04.474Z,20.70
2024-02-15T09:52:38.552Z,19.03
2024-02-15T09:55:14.597Z,16.77
2024-02-15T09:57:49.200Z,21.77
2024-02-15T10:00:24.973Z,17.97
2024-02-15T10:03:02.835Z,18.90
2024-02-15T10:05:37.722Z,18.50
2024-02-15T10:08:12.433Z,19.47
2024-02-15T10:10:46.373Z,17.97
2024-02-15T10:13:25.882Z,16.83
2024-02-15T10:16:01.433Z,19.33
2024-02-15T10:18:35.902Z,20.50
2024-02-15T10:21:12.715Z,17.20
2024-02-15T10:23:47.322Z,14.60
2024-02-15T10:26:29.662Z,14.50
2024-02-15T10:29:13.243Z,12.43
2024-02-15T10:31:58.155Z,14.40
2024-02-15T10:34:38.404Z,16.30
2024-02-15T10:37:20.362Z,12.57
2024-02-15T10:40:09.463Z,15.07
2024-02-15T10:42:47.498Z,16.97
2024-02-15T10:45:23.169Z,14.60
2024-02-15T10:47:58.724Z,15.37
2024-02-15T10:50:34.810Z,17.00
2024-02-15T10:53:25.126Z,14.63
2024-02-15T10:56:08.548Z,15.63
2024-02-15T10:58:53.873Z,14.03
2024-02-15T11:01:30.277Z,11.73
2024-02-15T11:04:09.811Z,11.63
2024-02-15T11:06:45.852Z,12.43
2024-02-15T11:09:23.399Z,12.20
2024-02-15T11:11:58.501Z,12.03
2024-02-15T11:14:35.155Z,12.13
2024-02-15T11:17:11.087Z,13.20
2024-02-15T11:19:49.517Z,10.73
2024-02-15T11:22:24.549Z,11.50
2024-02-15T11:24:59.128Z,12.47
2024-02-15T11:27:34.372Z,11.90
2024-02-15T11:30:13.832Z,12.27
2024-02-15T11:32:51.090Z,12.13
2024-02-15T11:35:26.858Z,11.00
2024-02-15T11:38:11.457Z,11.37
2024-02-15T11:41:11.892Z,15.17
2024-02-15T11:43:58.796Z,13.37
2024-02-15T11:46:35.471Z,12.67
2024-02-15T11:49:10.605Z,11.73
2024-02-15T11:51:45.247Z,13.43
2024-02-15T11:54:25.169Z,12.77
2024-02-15T11:57:11.806Z,12.77
2024-02-15T12:00:16.543Z,12.17
2024-02-15T12:03:07.857Z,13.83
2024-02-15T12:05:59.432Z,12.20
2024-02-15T12:08:51.388Z,13.73
2024-02-15T12:11:43.020Z,12.15
2024-02-15T12:14:36.895Z,13.13
2024-02-15T12:17:31.034Z,12.93
2024-02-15T12:20:12.587Z,13.23
2024-02-15T12:22:51.497Z,11.53
2024-02-15T12:25:25.777Z,13.20
2024-02-15T12:28:01.666Z,11.23
2024-02-15T12:30:39.810Z,12.13
2024-02-15T12:33:22.191Z,12.53
2024-02-15T12:36:06.736Z,11.83
2024-02-15T12:38:42.835Z,12.20
2024-02-15T12:41:27.631Z,10.70
2024-02-15T12:44:02.729Z,11.27
2024-02-15T12:46:37.149Z,12.00
2024-02-15T12:49:31.829Z,11.83
2024-02-15T12:52:45.094Z,11.57
2024-02-15T12:55:20.826Z,9.97
2024-02-15T12:57:58.334Z,10.90
2024-02-15T13:00:34.974Z,12.63
2024-02-15T13:03:12.709Z,12.10
2024-02-15T13:05:47.433Z,11.27
2024-02-15T13:08:22.351Z,13.47
2024-02-15T13:10:57.933Z,12.43
2024-02-15T13:13:31.861Z,12.57
2024-02-15T13:16:07.600Z,12.13
2024-02-15T13:18:42.606Z,11.60
2024-02-15T13:21:16.493Z,10.80
2024-02-15T13:23:51.521Z,11.00
2024-02-15T13:26:26.977Z,11.00
2024-02-15T13:29:01.425Z,11.40
2024-02-15T13:31:36.027Z,11.97
2024-02-15T13:34:11.449Z,12.80
2024-02-15T13:36:47.249Z,11.47
2024-02-15T13:39:23.245Z,12.90
2024-02-15T13:41:57.854Z,12.60
2024-02-15T13:44:32.253Z,12.13
2024-02-15T13:47:06.813Z,11.30
2024-02-15T13:49:41.091Z,12.07
2024-02-15T13:52:15.641Z,11.50
2024-02-15T13:54:51.351Z,10.40
2024-02-15T13:57:25.991Z,11.67
2024-02-15T14:00:00.416Z,10.00
2024-02-15T14:02:35.097Z,11.23
2024-02-15T14:05:10.917Z,9.47
2024-02-15T14:07:46.439Z,10.97
2024-02-15T14:10:22.467Z,9.93
2024-02-15T14:12:59.844Z,11.00
2024-02-15T14:15:38.698Z,9.93
2024-02-15T14:18:16.613Z,11.70
2024-02-15T14:20:52.387Z,11.47
2024-02-15T14:23:28.765Z,12.27
2024-02-15T14:26:03.540Z,10.70
2024-02-15T14:28:40.828Z,10.60
2024-02-15T14:31:38.197Z,10.77
2024-02-15T14:34:12.108Z,10.13
2024-02-15T14:36:46.468Z,9.93
2024-02-15T14:39:21.083Z,11.83
2024-02-15T14:41:55.419Z,9.90
2024-02-15T14:44:29.087Z,10.60
2024-02-15T14:47:03.842Z,10.83
2024-02-15T14:49:37.884Z,9.03
2024-02-15T14:52:13.765Z,9.60
2024-02-15T14:54:48.684Z,8.23
2024-02-15T14:57:23.801Z,10.00
2024-02-15T14:59:58.835Z,10.10
2024-02-15T15:02:33.087Z,7.47
2024-02-15T15:05:25.258Z,6.43
2024-02-15T15:08:17.198Z,10.63
2024-02-15T15:11:08.688Z,9.28
2024-02-15T15:13:43.849Z,9.83
2024-02-15T15:16:22.346Z,8.73
2024-02-15T15:18:57.483Z,9.50
2024-02-15T15:21:31.990Z,11.60
2024-02-15T15:24:06.569Z,9.73
2024-02-15T15:26:40.491Z,10.43
2024-02-15T15:29:15.451Z,9.87
2024-02-15T15:31:48.819Z,10.40
2024-02-15T15:34:23.793Z,10.67
2024-02-15T15:36:58.684Z,12.43
2024-02-15T15:39:35.970Z,15.67
2024-02-15T15:42:11.514Z,13.25
2024-02-15T15:44:46.404Z,14.50
2024-02-15T15:47:21.004Z,13.13
2024-02-15T15:49:59.865Z,12.93
2024-02-15T15:52:34.433Z,16.43
2024-02-15T15:55:12.198Z,13.97
2024-02-15T15:57:47.723Z,16.97
2024-02-15T16:00:24.299Z,18.13
2024-02-15T16:03:03.931Z,17.80
2024-02-15T16:05:38.684Z,17.07
2024-02-15T16:08:13.291Z,17.23
2024-02-15T16:10:46.760Z,17.70
2024-02-15T16:13:21.504Z,18.77
2024-02-15T16:15:58.011Z,18.10
2024-02-15T16:18:32.451Z,14.17
2024-02-15T16:21:07.722Z,13.87
2024-02-15T16:23:41.732Z,12.77
2024-02-15T16:26:15.837Z,12.73
2024-02-15T16:28:49.773Z,14.67
2024-02-15T16:31:23.811Z,14.30
2024-02-15T16:33:58.029Z,13.60
2024-02-15T16:36:32.347Z,11.40
2024-02-15T16:39:07.261Z,12.67
2024-02-15T16:41:42.896Z,12.43
2024-02-15T16:44:16.578Z,11.60
2024-02-15T16:46:50.764Z,13.00
2024-02-15T16:49:25.821Z,8.60
2024-02-15T16:51:59.579Z,13.70
2024-02-15T16:54:34.414Z,10.13
2024-02-15T16:57:15.292Z,10.97
2024-02-15T16:59:52.666Z,13.38
2024-02-15T17:02:26.872Z,11.70
2024-02-15T17:05:02.334Z,16.93
2024-02-15T17:07:36.636Z,10.03
2024-02-15T17:10:12.953Z,13.40
2024-02-15T17:12:47.572Z,15.07
2024-02-15T17:15:27.636Z,12.90
2024-02-15T17:18:02.704Z,14.03
2024-02-15T17:20:37.040Z,21.00
2024-02-15T17:23:11.392Z,16.97
2024-02-15T17:25:44.966Z,16.67
2024-02-15T17:28:19.842Z,16.03
2024-02-15T17:30:55.761Z,18.00
2024-02-15T17:33:30.238Z,22.17
2024-02-15T17:36:04.906Z,22.83
2024-02-15T17:38:40.518Z,19.83
2024-02-15T17:41:14.436Z,17.13
2024-02-15T17:43:50.010Z,19.33
2024-02-15T17:46:24.912Z,18.93
2024-02-15T17:49:00.212Z,14.67
2024-02-15T17:51:37.873Z,13.00
2024-02-15T17:54:12.897Z,13.67
2024-02-15T17:56:49.340Z,11.93
2024-02-15T17:59:24.717Z,12.07
2024-02-15T18:01:58.804Z,11.70
2024-02-15T18:04:32.785Z,11.63
2024-02-15T18:07:06.906Z,10.70
2024-02-15T18:09:41.647Z,11.50
2024-02-15T18:12:17.311Z,12.80
2024-02-15T18:14:52.043Z,10.37
2024-02-15T18:17:26.010Z,10.37
2024-02-15T18:20:00.733Z,8.60
2024-02-15T18:22:34.878Z,8.53
2024-02-15T18:25:11.390Z,10.43
2024-02-15T18:27:48.123Z,9.47
2024-02-15T18:30:31.956Z,7.70
2024-02-15T18:33:07.552Z,8.07
2024-02-15T18:35:42.990Z,12.33
2024-02-15T18:38:18.067Z,10.20
2024-02-15T18:40:52.898Z,8.77
2024-02-15T18:43:27.918Z,9.83
2024-02-15T18:46:02.657Z,8.90
2024-02-15T18:48:38.499Z,9.57
2024-02-15T18:51:16.249Z,9.27
2024-02-15T18:53:50.460Z,9.83
2024-02-15T18:56:25.960Z,11.87
2024-02-15T18:59:06.841Z,14.27
2024-02-15T19:01:41.488Z,11.93
2024-02-15T19:04:16.341Z,11.83
2024-02-15T19:06:52.627Z,14.53
2024-02-15T19:09:26.757Z,10.73
2024-02-15T19:12:02.745Z,13.23
2024-02-15T19:14:37.841Z,13.63
2024-02-15T19:17:12.909Z,13.10
2024-02-15T19:19:50.619Z,15.13
2024-02-15T19:22:25.168Z,13.17
2024-02-15T19:24:59.653Z,13.70
2024-02-15T19:27:33.817Z,14.67
2024-02-15T19:30:12.753Z,13.10
2024-02-15T19:32:46.726Z,13.97
2024-02-15T19:35:21.046Z,15.87
2024-02-15T19:37:55.394Z,18.37
2024-02-15T19:40:30.003Z,17.57
2024-02-15T19:43:04.082Z,18.07
2024-02-15T19:45:43.185Z,17.97
2024-02-15T19:48:18.553Z,19.67
2024-02-15T19:50:53.068Z,17.10
2024-02-15T19:53:27.178Z,17.43
2024-02-15T19:56:01.289Z,17.97
2024-02-15T19:58:35.605Z,15.83
2024-02-15T20:01:15.481Z,18.20
2024-02-15T20:03:49.644Z,17.67
2024-02-15T20:06:24.786Z,18.00
2024-02-15T20:08:59.979Z,18.77
2024-02-15T20:11:35.002Z,18.97
2024-02-15T20:14:09.625Z,17.80
2024-02-15T20:16:46.447Z,16.05
2024-02-15T20:19:20.351Z,17.23
2024-02-15T20:21:55.343Z,17.87
2024-02-15T20:24:30.163Z,17.53
2024-02-15T20:27:04.960Z,17.33
2024-02-15T20:29:40.522Z,18.70
2024-02-15T20:32:17.768Z,21.87
2024-02-15T20:34:51.604Z,19.50
2024-02-15T20:37:25.789Z,17.40
2024-02-15T20:39:59.856Z,19.13
2024-02-15T20:42:33.972Z,17.57
2024-02-15T20:45:11.527Z,17.90
2024-02-15T20:47:46.029Z,18.40
2024-02-15T20:50:20.968Z,16.90
2024-02-15T20:52:55.630Z,18.27
2024-02-15T20:55:30.960Z,19.00
2024-02-15T20:58:06.067Z,17.60
2024-02-15T21:00:40.785Z,18.60
2024-02-15T21:03:18.697Z,19.23
2024-02-15T21:05:53.227Z,16.45
2024-02-15T21:08:28.964Z,24.33
2024-02-15T21:11:02.767Z,22.53
2024-02-15T21:13:37.717Z,19.67
2024-02-15T21:16:17.527Z,16.80
2024-02-15T21:18:54.822Z,17.57
2024-02-15T21:21:29.723Z,19.90
2024-02-15T21:24:04.720Z,17.27
2024-02-15T21:26:43.561Z,19.03
2024-02-15T21:29:18.183Z,20.53
2024-02-15T21:31:52.799Z,17.33
2024-02-15T21:34:26.692Z,19.60
2024-02-15T21:37:00.834Z,20.13
2024-02-15T21:39:41.245Z,18.07
2024-02-15T21:42:16.101Z,23.87
2024-02-15T21:44:50.604Z,15.93
2024-02-15T21:47:25.193Z,20.33
2024-02-15T21:50:02.849Z,20.13
2024-02-15T21:52:39.082Z,18.90
2024-02-15T21:55:14.181Z,18.33
2024-02-15T21:57:48.302Z,17.67
2024-02-15T22:00:23.853Z,18.00
2024-02-15T22:02:58.326Z,20.03
2024-02-15T22:05:33.643Z,17.20
2024-02-15T22:08:09.697Z,17.07
2024-02-15T22:10:44.251Z,18.27
2024-02-15T22:13:19.305Z,15.90
2024-02-15T22:15:53.838Z,18.27
2024-02-15T22:18:27.654Z,17.47
2024-02-15T22:21:03.250Z,18.67
2024-02-15T22:23:37.424Z,17.87
2024-02-15T22:26:18.464Z,16.30
2024-02-15T22:28:53.222Z,18.80
2024-02-15T22:31:27.695Z,20.40
2024-02-15T22:34:02.028Z,17.33
2024-02-15T22:36:36.815Z,17.67
2024-02-15T22:39:11.835Z,19.40
2024-02-15T22:41:45.409Z,18.63
2024-02-15T22:44:19.934Z,18.77
2024-02-15T22:46:55.026Z,18.40
2024-02-15T22:49:29.790Z,17.13
2024-02-15T22:52:04.331Z,16.97
2024-02-15T22:54:41.521Z,16.70
2024-02-15T22:57:17.579Z,17.57
2024-02-15T22:59:53.355Z,20.87
2024-02-15T23:02:28.697Z,18.50
2024-02-15T23:05:03.783Z,20.17
2024-02-15T23:07:39.000Z,19.43
2024-02-15T23:10:14.736Z,16.07
2024-02-15T23:12:49.070Z,16.93
2024-02-15T23:15:22.824Z,17.50
2024-02-15T23:17:57.208Z,17.33
2024-02-15T23:20:31.706Z,17.97
2024-02-15T23:23:08.676Z,17.87
2024-02-15T23:25:43.787Z,18.20
2024-02-15T23:28:18.274Z,17.57
2024-02-15T23:30:52.901Z,17.50
2024-02-15T23:33:27.590Z,16.50
2024-02-15T23:36:19.695Z,17.10
2024-02-15T23:39:10.876Z,16.87
2024-02-15T23:41:44.523Z,18.70
2024-02-15T23:44:18.242Z,16.93
2024-02-15T23:46:52.256Z,17.77
2024-02-15T23:49:26.310Z,17.37
2024-02-15T23:52:00.848Z,17.93
2024-02-15T23:54:34.675Z,23.20
2024-02-15T23:57:09.949Z,16.60
2024-02-15T23:59:44.576Z,15.97
